Tropical Cyclones
[Index]
Main Index Home Page Stock Weather Photos Extreme Storms Discussion Storm News and Storm Chasing Reports Tropical Cyclones / Hurricanes / Typhoons Weather Data and Links Wild Fires / Bushfires Weather Observation Techniques Weather Picture Catalogue Tornado Pictures and Reports Stock Video Footage and DVDs for sale
Season 2002-2003 Tropical Cyclone ESETA Track Map
Season 2002-2003 Summaries (Operational Data): [AU] [SIO] [SPAC] [SH]
<<- Previous TC | 2002-2003 Season | Next TC ->>

click for intensity scale information  Lat/long Grid: Show Hide

 Date Labels: Show Hide

Operational Tropical Cyclone Data : JTWC Advisories

Name: ESETA
Number: 0325

07 Mar 2003 21:00 UTC to 14 Mar 2003 17:00 UTC

    date/time    lat    long     hPa   cat  kts
2003-03-07 21   13.4   178.0    1000         20          
2003-03-08 21   14.0   173.8     998         20          
2003-03-09 09   14.0   173.0    1000         20          
2003-03-09 21   15.5   172.5     998         20          
2003-03-10 06   16.2   172.2     997         25          
2003-03-10 12   15.9   172.5     997         30          
2003-03-10 17   16.9   172.0     995    1    35          
2003-03-10 18   17.0   172.0     995    1    35          
2003-03-11 00   18.2   172.1     985    2    50          
2003-03-11 06   18.7   172.4     975    2    60          
2003-03-11 12   19.4   172.9     975    2    60          
2003-03-11 18   20.2   174.2     975    2    60          
2003-03-12 00   21.4   175.0     970    3    65          
2003-03-12 06   21.7   176.1     970    3    65          
2003-03-12 12   21.8   177.8     970    3    65          
2003-03-12 18   21.9   179.9     930    4    95          
2003-03-13 00   22.0   177.9W    930    4    95          
2003-03-13 06   22.1   175.3W    935    4    90          
2003-03-13 12   22.7   172.5W    935    4    90          
2003-03-13 18   23.6   169.0W    945    3    85          
2003-03-14 00   25.3   165.3W    965    3    70          
2003-03-14 06   28.5   160.5W    970    3    65          
2003-03-14 11   31.0   160.0W    980    2    50          
2003-03-14 17   35.0   157.0W    985    2    50          
Winds are 10-min average.

Tropical cyclone tracks developed by Michael Bath using operational warnings and advisories and Google Maps.


[Australian Severe Weather index] [Copyright Notice] [Email Contacts] [Search This Site] [Privacy Policy]
Document: tropical_cyclone_eseta.htm Updated: 2 May 2017